Погода Гоянияна 2 недели

Гояс, Бразилия

16 - 28 июля
  • 16июля
    Сегодня
    +15°
    +31°
    Ясно и безоблачно
    ВремяПогодаТемператураВлажностьДавлениеВетер, м/сВероятность осадков
    00:00Ясно и безоблачно+20°C50 %700 мм3.1 м/с5 %
    03:00Небольшая облачность+18°C57 %698 мм2.5 м/с5 %
    06:00Ясно и безоблачно+16°C59 %698 мм2.4 м/с5 %
    09:00Ясно и безоблачно+21°C41 %700 мм1.1 м/с5 %
    12:00Ясно и безоблачно+28°C25 %701 мм3.8 м/с5 %
    15:00Ясно и безоблачно+30°C23 %699 мм1.6 м/с5 %
    18:00Ясно и безоблачно+27°C31 %699 мм2.1 м/с5 %
    21:00Ясно и безоблачно+24°C41 %700 мм0.5 м/с5 %
  • 17июля
    Среда
    +15°
    +31°
    Ясно и безоблачно
    ВремяПогодаТемператураВлажностьДавлениеВетер, м/сВероятность осадков
    00:00Ясно и безоблачно+21°C49 %700 мм1.9 м/с5 %
    03:00Ясно и безоблачно+18°C58 %698 мм2.2 м/с5 %
    06:00Ясно и безоблачно+15°C63 %698 мм2.0 м/с5 %
    09:00Ясно и безоблачно+22°C41 %701 мм1.0 м/с5 %
    12:00Ясно и безоблачно+28°C27 %701 мм1.7 м/с5 %
    15:00Ясно и безоблачно+31°C25 %699 мм1.5 м/с5 %
    18:00Ясно и безоблачно+28°C30 %699 мм1.7 м/с5 %
    21:00Ясно и безоблачно+25°C39 %699 мм0.4 м/с5 %
  • 18июля
    Четверг
    +16°
    +32°
    Небольшая облачность
    ВремяПогодаТемператураВлажностьДавлениеВетер, м/сВероятность осадков
    00:00Ясно и безоблачно+21°C51 %698 мм1.7 м/с5 %
    03:00Практически безоблачно+18°C57 %697 мм2.1 м/с5 %
    06:00Практически безоблачно+17°C60 %697 мм2.3 м/с5 %
    09:00Небольшая облачность+22°C40 %699 мм1.0 м/с5 %
    12:00Небольшая облачность+29°C25 %699 мм2.6 м/с5 %
    15:00Небольшая облачность+31°C22 %698 мм1.5 м/с5 %
    18:00Ясно и безоблачно+28°C27 %698 мм2.2 м/с5 %
    21:00Ясно и безоблачно+26°C38 %699 мм0.5 м/с5 %
  • 19июля
    Пятница
    +16°
    +33°
    Ясно и безоблачно
    ВремяПогодаТемператураВлажностьДавлениеВетер, м/сВероятность осадков
    00:00Ясно и безоблачно+22°C45 %699 мм3.2 м/с5 %
    03:00Ясно и безоблачно+19°C59 %697 мм2.8 м/с5 %
    06:00Ясно и безоблачно+17°C66 %697 мм2.5 м/с5 %
    09:00Ясно и безоблачно+23°C42 %700 мм1.1 м/с5 %
    12:00Ясно и безоблачно+30°C24 %701 мм3.3 м/с5 %
    15:00Ясно и безоблачно+32°C20 %699 мм1.6 м/с5 %
    18:00Ясно и безоблачно+29°C28 %699 мм1.9 м/с5 %
    21:00Ясно и безоблачно+26°C38 %700 мм0.4 м/с5 %
Мы используем cookies
Соглашаюсь